createdAt,value
2017-11-23T00:01:58.327Z,99204.42
2017-11-23T00:04:25.717Z,99216.89
2017-11-23T00:06:53.116Z,99218.73
2017-11-23T00:09:20.500Z,99220.30
2017-11-23T00:11:48.273Z,99223.25
2017-11-23T00:14:15.669Z,99228.56
2017-11-23T00:16:43.051Z,99213.63
2017-11-23T00:19:10.446Z,99205.77
2017-11-23T00:21:37.839Z,99199.69
2017-11-23T00:24:05.223Z,99206.25
2017-11-23T00:26:32.614Z,99195.41
2017-11-23T00:29:00.012Z,99203.05
2017-11-23T00:31:27.396Z,99210.57
2017-11-23T00:33:54.798Z,99210.19
2017-11-23T00:36:22.195Z,99206.99
2017-11-23T00:38:49.587Z,99208.54
2017-11-23T00:41:16.974Z,99197.62
2017-11-23T00:43:44.396Z,99194.23
2017-11-23T00:46:11.788Z,99197.86
2017-11-23T00:48:39.185Z,99202.94
2017-11-23T00:51:06.599Z,99199.72
2017-11-23T00:53:33.991Z,99198.73
2017-11-23T00:56:01.379Z,99197.00
2017-11-23T00:58:28.782Z,99200.81
2017-11-23T01:00:56.170Z,99206.25
2017-11-23T01:03:23.584Z,99199.94
2017-11-23T01:05:50.968Z,99197.56
2017-11-23T01:08:18.354Z,99195.94
2017-11-23T01:10:45.747Z,99199.61
2017-11-23T01:13:13.148Z,99188.78
2017-11-23T01:15:40.539Z,99190.42
2017-11-23T01:18:07.938Z,99193.36
2017-11-23T01:20:35.373Z,99197.41
2017-11-23T01:23:02.740Z,99202.73
2017-11-23T01:25:30.135Z,99189.09
2017-11-23T01:27:57.553Z,99186.30
2017-11-23T01:30:24.936Z,99189.06
2017-11-23T01:32:52.323Z,99185.33
2017-11-23T01:35:19.727Z,99182.14
2017-11-23T01:37:47.115Z,99183.57
2017-11-23T01:40:14.512Z,99172.28
2017-11-23T01:42:41.915Z,99173.11
2017-11-23T01:45:09.313Z,99167.94
2017-11-23T01:47:36.720Z,99157.42
2017-11-23T01:50:04.122Z,99161.39
2017-11-23T01:52:31.532Z,99155.56
2017-11-23T01:54:58.917Z,99154.36
2017-11-23T01:57:26.338Z,99157.81
2017-11-23T01:59:53.737Z,99161.98
2017-11-23T02:02:21.131Z,99164.36
2017-11-23T02:04:48.547Z,99158.19
2017-11-23T02:07:15.935Z,99163.03
2017-11-23T02:09:43.326Z,99148.68
2017-11-23T02:12:10.728Z,99147.70
2017-11-23T02:14:38.115Z,99148.87
2017-11-23T02:17:05.508Z,99147.29
2017-11-23T02:19:32.911Z,99136.59
2017-11-23T02:22:00.294Z,99129.74
2017-11-23T02:24:27.694Z,99121.28
2017-11-23T02:26:55.096Z,99120.52
2017-11-23T02:29:22.479Z,99109.32
2017-11-23T02:31:49.867Z,99105.41
2017-11-23T02:34:17.279Z,99100.49
2017-11-23T02:36:44.671Z,99097.78
2017-11-23T02:39:12.072Z,99093.70
2017-11-23T02:41:39.524Z,99079.69
2017-11-23T02:44:06.899Z,99069.05
2017-11-23T02:46:34.287Z,99061.55
2017-11-23T02:49:01.687Z,99059.06
2017-11-23T02:51:29.093Z,99060.60
2017-11-23T02:53:56.487Z,99060.81
2017-11-23T02:56:23.888Z,99055.84
2017-11-23T02:58:51.279Z,99052.25
2017-11-23T03:01:18.668Z,99037.64
2017-11-23T03:03:46.072Z,99046.44
2017-11-23T03:06:13.463Z,99055.27
2017-11-23T03:08:40.852Z,99056.66
2017-11-23T03:11:08.261Z,99061.84
2017-11-23T03:13:35.935Z,99075.48
2017-11-23T03:16:03.352Z,99086.53
2017-11-23T03:18:30.759Z,99092.38
2017-11-23T03:20:58.147Z,99076.06
2017-11-23T03:23:25.542Z,99067.53
2017-11-23T03:25:52.964Z,99060.56
2017-11-23T03:28:20.387Z,99056.28
2017-11-23T03:30:47.773Z,99054.13
2017-11-23T03:33:15.187Z,99052.78
2017-11-23T03:35:42.580Z,99054.41
2017-11-23T03:38:09.979Z,99047.41
2017-11-23T03:40:37.411Z,99054.69
2017-11-23T03:43:04.840Z,99053.92
2017-11-23T03:45:32.229Z,99051.95
2017-11-23T03:47:59.647Z,99060.70
2017-11-23T03:50:27.052Z,99051.23
2017-11-23T03:52:54.439Z,99036.84
2017-11-23T03:55:21.871Z,99032.56
2017-11-23T03:57:49.264Z,99025.23
2017-11-23T04:00:16.657Z,99028.03
2017-11-23T04:02:44.060Z,99021.59
2017-11-23T04:05:11.443Z,99026.64
2017-11-23T04:07:38.841Z,99020.19
2017-11-23T04:10:06.251Z,99013.52
2017-11-23T04:12:33.661Z,99014.16
2017-11-23T04:15:01.040Z,99032.52
2017-11-23T04:17:28.463Z,99046.26
2017-11-23T04:19:55.848Z,99063.87
2017-11-23T04:22:23.241Z,99098.75
2017-11-23T04:24:50.652Z,99111.95
2017-11-23T04:27:18.035Z,99086.96
2017-11-23T04:29:45.424Z,99089.70
2017-11-23T04:32:12.823Z,99089.52
2017-11-23T04:34:40.211Z,99089.72
2017-11-23T04:37:07.607Z,99096.64
2017-11-23T04:39:35.009Z,99082.62
2017-11-23T04:42:02.401Z,99081.45
2017-11-23T04:44:29.796Z,99070.33
2017-11-23T04:46:57.204Z,99058.81
2017-11-23T04:49:24.593Z,99045.79
2017-11-23T04:51:51.986Z,99052.09
2017-11-23T04:54:19.383Z,99043.53
2017-11-23T04:56:46.774Z,99060.62
2017-11-23T04:59:14.156Z,99048.40
2017-11-23T05:01:41.560Z,99038.79
2017-11-23T05:04:08.956Z,99045.66
2017-11-23T05:06:36.340Z,99034.73
2017-11-23T05:09:03.734Z,99031.52
2017-11-23T05:11:31.127Z,99032.26
2017-11-23T05:13:58.519Z,99033.09
2017-11-23T05:16:25.957Z,99034.70
2017-11-23T05:18:53.339Z,99025.83
2017-11-23T05:21:20.733Z,99039.16
2017-11-23T05:23:48.134Z,99044.12
2017-11-23T05:26:15.532Z,99048.14
2017-11-23T05:28:42.919Z,99049.66
2017-11-23T05:31:10.320Z,99064.94
2017-11-23T05:33:37.717Z,99071.48
2017-11-23T05:36:05.113Z,99062.19
2017-11-23T05:38:32.521Z,99064.39
2017-11-23T05:40:59.909Z,99077.66
2017-11-23T05:43:27.305Z,99079.40
2017-11-23T05:45:54.714Z,99076.04
2017-11-23T05:48:22.165Z,99056.67
2017-11-23T05:50:49.564Z,99063.52
2017-11-23T05:53:16.978Z,99058.18
2017-11-23T05:55:44.382Z,99042.96
2017-11-23T05:58:11.775Z,99083.91
2017-11-23T06:00:40.378Z,99072.08
2017-11-23T06:03:07.780Z,99065.92
2017-11-23T06:05:35.176Z,99061.92
2017-11-23T06:08:02.596Z,99057.88
2017-11-23T06:10:29.988Z,99052.87
2017-11-23T06:12:57.384Z,99044.27
2017-11-23T06:15:24.792Z,99034.58
2017-11-23T06:17:52.179Z,99024.50
2017-11-23T06:20:19.578Z,99026.20
2017-11-23T06:22:46.997Z,99013.22
2017-11-23T06:25:14.377Z,99010.23
2017-11-23T06:27:41.764Z,99000.65
2017-11-23T06:30:09.168Z,99009.81
2017-11-23T06:32:36.556Z,99026.42
2017-11-23T06:35:03.952Z,99035.51
2017-11-23T06:37:31.348Z,99025.45
2017-11-23T06:39:58.735Z,99025.91
2017-11-23T06:42:26.134Z,99026.88
2017-11-23T06:44:53.539Z,99021.95
2017-11-23T06:47:20.919Z,99026.58
2017-11-23T06:49:48.316Z,99016.86
2017-11-23T06:52:15.742Z,99021.73
2017-11-23T06:54:43.141Z,99022.21
2017-11-23T06:57:10.538Z,99027.49
2017-11-23T06:59:37.933Z,99026.05
2017-11-23T07:02:06.031Z,99032.87
2017-11-23T07:04:33.428Z,99041.48
2017-11-23T07:07:00.925Z,99046.41
2017-11-23T07:09:28.331Z,99042.30
2017-11-23T07:11:55.735Z,99042.38
2017-11-23T07:14:23.140Z,99053.31
2017-11-23T07:16:50.536Z,99054.55
2017-11-23T07:19:17.921Z,99051.33
2017-11-23T07:21:45.324Z,99065.11
2017-11-23T07:24:12.722Z,99061.51
2017-11-23T07:26:40.127Z,99058.28
2017-11-23T07:29:07.527Z,99056.95
2017-11-23T07:31:34.915Z,99063.77
2017-11-23T07:34:02.307Z,99073.58
2017-11-23T07:36:29.707Z,99066.61
2017-11-23T07:38:57.099Z,99068.78
2017-11-23T07:41:24.492Z,99063.70
2017-11-23T07:43:52.614Z,99063.05
2017-11-23T07:46:19.999Z,99073.30
2017-11-23T07:48:47.460Z,99069.56
2017-11-23T07:51:14.880Z,99057.98
2017-11-23T07:53:48.083Z,99058.87
2017-11-23T07:56:15.483Z,99053.25
2017-11-23T07:58:42.929Z,99050.73
2017-11-23T08:01:10.319Z,99048.34
2017-11-23T08:03:37.723Z,99055.98
2017-11-23T08:06:05.118Z,99056.84
2017-11-23T08:08:33.107Z,99048.81
2017-11-23T08:11:00.517Z,99052.70
2017-11-23T08:13:28.244Z,99049.02
2017-11-23T08:15:55.688Z,99053.79
2017-11-23T08:18:23.372Z,99062.02
2017-11-23T08:20:50.779Z,99073.23
2017-11-23T08:23:18.192Z,99061.09
2017-11-23T08:25:45.647Z,99063.94
2017-11-23T08:28:13.047Z,99066.72
2017-11-23T08:30:40.440Z,99068.16
2017-11-23T08:33:07.896Z,99066.20
2017-11-23T08:35:35.311Z,99068.61
2017-11-23T08:38:02.711Z,99074.92
2017-11-23T08:40:30.251Z,99084.64
2017-11-23T08:42:57.659Z,99081.22
2017-11-23T08:45:25.063Z,99092.58
2017-11-23T08:47:52.472Z,99089.62
2017-11-23T08:50:19.864Z,99102.78
2017-11-23T08:52:48.316Z,99094.97
2017-11-23T08:55:15.716Z,99098.06
2017-11-23T08:57:43.156Z,99090.58
2017-11-23T09:00:10.545Z,99085.74
2017-11-23T09:02:37.959Z,99077.19
2017-11-23T09:05:06.271Z,99083.34
2017-11-23T09:07:33.665Z,99087.63
2017-11-23T09:10:02.349Z,99088.17
2017-11-23T09:12:30.653Z,99095.16
2017-11-23T09:14:58.840Z,99079.81
2017-11-23T09:17:26.255Z,99079.56
2017-11-23T09:19:53.641Z,99088.00
2017-11-23T09:22:21.040Z,99098.41
2017-11-23T09:24:48.451Z,99094.02
2017-11-23T09:27:15.842Z,99089.40
2017-11-23T09:29:43.223Z,99091.05
2017-11-23T09:32:10.632Z,99093.34
2017-11-23T09:34:38.017Z,99099.27
2017-11-23T09:37:05.395Z,99100.42
2017-11-23T09:39:32.884Z,99097.64
2017-11-23T09:42:00.271Z,99109.48
2017-11-23T09:44:27.654Z,99113.52
2017-11-23T09:46:55.053Z,99125.75
2017-11-23T09:49:22.449Z,99101.78
2017-11-23T09:51:49.827Z,99114.80
2017-11-23T09:54:17.235Z,99108.66
2017-11-23T09:56:44.623Z,99115.41
2017-11-23T09:59:12.005Z,99115.03
2017-11-23T10:01:39.420Z,99113.16
2017-11-23T10:04:06.807Z,99112.34
2017-11-23T10:06:34.189Z,99121.20
2017-11-23T10:09:01.597Z,99128.98
2017-11-23T10:11:28.980Z,99124.59
2017-11-23T10:13:56.367Z,99122.67
2017-11-23T10:16:23.759Z,99135.70
2017-11-23T10:18:51.146Z,99126.33
2017-11-23T10:21:18.632Z,99127.39
2017-11-23T10:23:46.024Z,99132.34
2017-11-23T10:26:13.405Z,99142.05
2017-11-23T10:28:40.819Z,99143.38
2017-11-23T10:31:08.228Z,99149.66
2017-11-23T10:33:36.801Z,99149.01
2017-11-23T10:36:04.167Z,99151.54
2017-11-23T10:38:31.647Z,99162.55
2017-11-23T10:40:59.027Z,99151.68
2017-11-23T10:43:26.415Z,99168.84
2017-11-23T10:45:53.829Z,99167.63
2017-11-23T10:48:31.319Z,99162.94
2017-11-23T10:50:58.721Z,99172.62
2017-11-23T10:53:26.378Z,99163.46
2017-11-23T10:55:53.755Z,99170.98
2017-11-23T10:58:21.168Z,99178.65
2017-11-23T11:00:48.563Z,99172.88
2017-11-23T11:03:15.944Z,99175.70
2017-11-23T11:05:43.372Z,99175.97
2017-11-23T11:08:10.765Z,99181.77
2017-11-23T11:10:38.143Z,99184.14
2017-11-23T11:13:05.535Z,99186.14
2017-11-23T11:15:32.977Z,99185.14
2017-11-23T11:18:00.394Z,99184.69
2017-11-23T11:20:27.787Z,99193.52
2017-11-23T11:22:55.422Z,99197.81
2017-11-23T11:25:22.784Z,99199.30
2017-11-23T11:27:50.179Z,99206.16
2017-11-23T11:30:17.580Z,99195.72
2017-11-23T11:32:44.959Z,99204.31
2017-11-23T11:35:12.352Z,99212.09
2017-11-23T11:37:39.741Z,99207.14
2017-11-23T11:40:07.136Z,99202.52
2017-11-23T11:42:34.535Z,99212.20
2017-11-23T11:45:01.911Z,99204.95
2017-11-23T11:47:29.296Z,99219.08
2017-11-23T11:49:56.735Z,99216.66
2017-11-23T11:52:24.119Z,99218.77
2017-11-23T11:54:51.508Z,99222.67
2017-11-23T11:57:18.906Z,99220.98
2017-11-23T11:59:46.287Z,99230.13
2017-11-23T12:02:13.654Z,99231.21
2017-11-23T12:04:41.071Z,99216.30
2017-11-23T12:07:08.468Z,99216.17
2017-11-23T12:09:35.887Z,99242.63
2017-11-23T12:12:03.590Z,99231.75
2017-11-23T12:14:30.987Z,99246.13
2017-11-23T12:20:08.797Z,99252.55
2017-11-23T12:22:43.060Z,99250.14
2017-11-23T12:25:10.457Z,99252.97
2017-11-23T12:27:50.307Z,99261.81
2017-11-23T12:30:17.704Z,99259.83
2017-11-23T12:32:45.123Z,99278.34
2017-11-23T12:35:12.591Z,99274.84
2017-11-23T12:37:39.983Z,99271.61
2017-11-23T12:40:07.392Z,99264.35
2017-11-23T12:42:34.889Z,99268.83
2017-11-23T12:45:02.273Z,99270.58
2017-11-23T12:47:29.673Z,99275.97
2017-11-23T12:49:57.058Z,99272.74
2017-11-23T12:52:25.023Z,99269.93
2017-11-23T12:54:52.426Z,99271.92
2017-11-23T12:57:19.837Z,99280.55
2017-11-23T12:59:47.211Z,99276.53
2017-11-23T13:02:14.609Z,99274.25
2017-11-23T13:04:42.041Z,99286.73
2017-11-23T13:07:09.473Z,99278.84
2017-11-23T13:09:36.884Z,99287.59
2017-11-23T13:12:04.332Z,99279.41
2017-11-23T13:14:31.729Z,99284.63
2017-11-23T13:16:59.107Z,99279.95
2017-11-23T13:19:26.519Z,99281.28
2017-11-23T13:21:53.899Z,99289.19
2017-11-23T13:24:21.321Z,99283.95
2017-11-23T13:26:48.776Z,99302.25
2017-11-23T13:29:16.307Z,99295.25
2017-11-23T13:31:43.717Z,99295.54
2017-11-23T13:34:11.112Z,99283.70
2017-11-23T13:36:38.500Z,99289.52
2017-11-23T13:39:05.920Z,99294.82
2017-11-23T13:41:33.502Z,99293.60
2017-11-23T13:44:00.874Z,99286.63
2017-11-23T13:46:28.880Z,99288.39
2017-11-23T13:48:56.268Z,99297.53
2017-11-23T13:51:23.661Z,99297.27
2017-11-23T13:53:51.064Z,99296.62
2017-11-23T13:56:18.492Z,99303.98
2017-11-23T13:58:45.875Z,99297.53
2017-11-23T14:01:13.288Z,99301.06
2017-11-23T14:03:40.781Z,99295.28
2017-11-23T14:06:08.160Z,99294.73
2017-11-23T14:08:35.628Z,99301.98
2017-11-23T14:11:03.036Z,99300.52
2017-11-23T14:13:30.449Z,99308.05
2017-11-23T14:15:57.851Z,99308.97
2017-11-23T14:18:25.273Z,99301.73
2017-11-23T14:20:52.638Z,99307.36
2017-11-23T14:23:20.034Z,99311.41
2017-11-23T14:25:47.414Z,99318.11
2017-11-23T14:28:14.855Z,99305.35
2017-11-23T14:30:42.228Z,99308.70
2017-11-23T14:33:09.629Z,99315.71
2017-11-23T14:35:37.028Z,99318.11
2017-11-23T14:38:04.428Z,99334.66
2017-11-23T14:40:31.881Z,99339.75
2017-11-23T14:42:59.302Z,99343.26
2017-11-23T14:45:26.704Z,99346.09
2017-11-23T14:47:54.107Z,99355.34
2017-11-23T14:50:21.517Z,99355.91
2017-11-23T14:52:48.931Z,99348.23
2017-11-23T14:55:16.329Z,99351.59
2017-11-23T14:57:43.727Z,99352.66
2017-11-23T15:00:11.151Z,99354.55
2017-11-23T15:02:38.567Z,99356.42
2017-11-23T15:05:05.956Z,99357.23
2017-11-23T15:07:33.344Z,99361.69
2017-11-23T15:10:00.743Z,99356.70
2017-11-23T15:12:28.168Z,99356.83
2017-11-23T15:14:55.571Z,99357.91
2017-11-23T15:17:23.024Z,99363.82
2017-11-23T15:19:50.411Z,99362.17
2017-11-23T15:22:17.805Z,99361.78
2017-11-23T15:24:45.241Z,99370.40
2017-11-23T15:27:12.622Z,99371.59
2017-11-23T15:29:40.745Z,99381.11
2017-11-23T15:32:08.184Z,99391.56
2017-11-23T15:34:35.608Z,99390.35
2017-11-23T15:37:03.651Z,99394.66
2017-11-23T15:39:31.096Z,99396.81
2017-11-23T15:41:58.480Z,99397.89
2017-11-23T15:44:25.872Z,99386.73
2017-11-23T15:46:53.720Z,99388.17
2017-11-23T15:49:21.147Z,99391.78
2017-11-23T15:51:48.540Z,99395.14
2017-11-23T15:54:15.973Z,99386.66
2017-11-23T15:56:43.468Z,99405.30
2017-11-23T15:59:11.662Z,99407.69
2017-11-23T16:01:39.063Z,99401.64
2017-11-23T16:04:06.460Z,99405.89
2017-11-23T16:06:33.862Z,99404.50
2017-11-23T16:09:01.864Z,99400.59
2017-11-23T16:11:29.257Z,99404.20
2017-11-23T16:13:56.632Z,99396.64
2017-11-23T16:16:24.028Z,99399.86
2017-11-23T16:18:51.431Z,99411.52
2017-11-23T16:21:18.811Z,99413.66
2017-11-23T16:23:46.252Z,99441.23
2017-11-23T16:26:13.658Z,99489.16
2017-11-23T16:28:41.043Z,99528.86
2017-11-23T16:31:08.475Z,99528.64
2017-11-23T16:33:35.896Z,99523.33
2017-11-23T16:36:03.275Z,99529.05
2017-11-23T16:38:30.691Z,99527.58
2017-11-23T16:41:08.656Z,99530.80
2017-11-23T16:43:36.107Z,99534.56
2017-11-23T16:46:09.017Z,99533.03
2017-11-23T16:48:38.354Z,99558.01
2017-11-23T16:51:11.291Z,99567.59
2017-11-23T16:56:52.569Z,99569.86
2017-11-23T16:59:19.979Z,99574.52
2017-11-23T17:01:53.016Z,99572.95
2017-11-23T17:04:26.024Z,99582.45
2017-11-23T17:10:01.509Z,99595.92
2017-11-23T17:12:34.567Z,99616.88
2017-11-23T17:15:08.524Z,99611.73
2017-11-23T17:17:39.392Z,99619.30
2017-11-23T17:20:06.771Z,99628.92
2017-11-23T17:22:34.187Z,99631.94
2017-11-23T17:25:01.585Z,99643.03
2017-11-23T17:27:28.970Z,99638.88
2017-11-23T17:29:56.414Z,99648.81
2017-11-23T17:32:23.802Z,99645.12
2017-11-23T17:34:51.933Z,99654.73
2017-11-23T17:37:19.348Z,99655.79
2017-11-23T17:39:46.736Z,99657.89
2017-11-23T17:42:14.170Z,99661.70
2017-11-23T17:44:41.591Z,99658.82
2017-11-23T17:47:08.984Z,99658.66
2017-11-23T17:49:36.378Z,99661.49
2017-11-23T17:52:03.785Z,99670.30
2017-11-23T17:54:31.255Z,99673.38
2017-11-23T17:56:58.672Z,99675.57
2017-11-23T17:59:27.008Z,99682.33
2017-11-23T18:01:54.388Z,99690.93
2017-11-23T18:04:21.780Z,99691.92
2017-11-23T18:06:49.175Z,99690.48
2017-11-23T18:09:16.562Z,99690.77
2017-11-23T18:11:43.999Z,99702.48
2017-11-23T18:14:11.406Z,99699.09
2017-11-23T18:16:39.156Z,99703.61
2017-11-23T18:19:06.608Z,99689.73
2017-11-23T18:21:34.005Z,99686.44
2017-11-23T18:24:01.404Z,99692.48
2017-11-23T18:26:28.788Z,99690.50
2017-11-23T18:28:56.184Z,99681.34
2017-11-23T18:31:23.588Z,99680.03
2017-11-23T18:33:50.986Z,99681.44
2017-11-23T18:36:18.411Z,99687.13
2017-11-23T18:38:45.799Z,99690.45
2017-11-23T18:41:13.221Z,99682.48
2017-11-23T18:43:40.624Z,99681.36
2017-11-23T18:46:08.027Z,99675.02
2017-11-23T18:48:35.421Z,99675.72
2017-11-23T18:51:02.851Z,99686.50
2017-11-23T18:53:30.264Z,99695.00
2017-11-23T18:55:57.639Z,99693.32
2017-11-23T18:58:25.068Z,99696.48
2017-11-23T19:00:52.459Z,99696.77
2017-11-23T19:03:19.923Z,99700.78
2017-11-23T19:05:48.328Z,99700.99
2017-11-23T19:08:16.463Z,99704.73
2017-11-23T19:10:43.843Z,99708.79
2017-11-23T19:13:11.268Z,99708.93
2017-11-23T19:15:38.671Z,99714.86
2017-11-23T19:18:06.203Z,99717.24
2017-11-23T19:20:33.610Z,99733.86
2017-11-23T19:23:01.008Z,99734.50
2017-11-23T19:25:29.132Z,99742.17
2017-11-23T19:27:56.535Z,99745.97
2017-11-23T19:30:23.935Z,99748.00
2017-11-23T19:32:51.333Z,99757.85
2017-11-23T19:35:18.744Z,99757.78
2017-11-23T19:37:46.147Z,99765.55
2017-11-23T19:40:13.540Z,99776.67
2017-11-23T19:42:40.935Z,99780.65
2017-11-23T19:45:08.335Z,99786.38
2017-11-23T19:47:35.727Z,99791.77
2017-11-23T19:50:03.138Z,99789.44
2017-11-23T19:52:31.534Z,99792.17
2017-11-23T19:54:58.927Z,99785.67
2017-11-23T19:57:26.332Z,99790.50
2017-11-23T19:59:53.722Z,99791.35
2017-11-23T20:02:21.123Z,99791.35
2017-11-23T20:04:48.529Z,99794.31
2017-11-23T20:07:15.930Z,99786.07
2017-11-23T20:09:43.319Z,99797.59
2017-11-23T20:12:10.723Z,99798.14
2017-11-23T20:14:38.120Z,99800.14
2017-11-23T20:17:05.912Z,99801.97
2017-11-23T20:19:33.319Z,99805.53
2017-11-23T20:22:00.708Z,99804.36
2017-11-23T20:24:28.112Z,99808.27
2017-11-23T20:26:55.519Z,99820.75
2017-11-23T20:29:22.916Z,99814.99
2017-11-23T20:31:50.317Z,99814.83
2017-11-23T20:34:17.710Z,99807.38
2017-11-23T20:36:45.097Z,99801.30
2017-11-23T20:39:12.493Z,99815.81
2017-11-23T20:41:39.910Z,99820.69
2017-11-23T20:44:07.307Z,99821.41
2017-11-23T20:46:34.705Z,99829.58
2017-11-23T20:49:02.128Z,99830.28
2017-11-23T20:51:29.551Z,99811.41
2017-11-23T20:53:56.941Z,99828.20
2017-11-23T20:56:24.440Z,99839.59
2017-11-23T20:58:51.843Z,99845.03
2017-11-23T21:01:19.224Z,99835.10
2017-11-23T21:03:46.651Z,99819.59
2017-11-23T21:06:14.055Z,99825.91
2017-11-23T21:08:41.447Z,99821.86
2017-11-23T21:11:08.894Z,99828.47
2017-11-23T21:13:36.288Z,99833.69
2017-11-23T21:16:03.676Z,99845.89
2017-11-23T21:18:31.105Z,99841.00
2017-11-23T21:20:58.587Z,99847.34
2017-11-23T21:23:25.992Z,99851.11
2017-11-23T21:25:53.400Z,99846.59
2017-11-23T21:28:20.795Z,99855.70
2017-11-23T21:30:48.202Z,99860.94
2017-11-23T21:33:15.623Z,99852.98
2017-11-23T21:35:43.108Z,99842.05
2017-11-23T21:38:10.516Z,99840.77
2017-11-23T21:40:37.931Z,99849.83
2017-11-23T21:43:05.347Z,99852.88
2017-11-23T21:45:32.740Z,99858.69
2017-11-23T21:48:00.135Z,99858.77
2017-11-23T21:50:27.540Z,99857.06
2017-11-23T21:52:54.930Z,99854.15
2017-11-23T21:55:22.331Z,99848.47
2017-11-23T21:57:49.723Z,99847.01
2017-11-23T22:00:17.116Z,99852.36
2017-11-23T22:02:44.514Z,99847.52
2017-11-23T22:05:11.903Z,99861.00
2017-11-23T22:07:39.299Z,99862.72
2017-11-23T22:10:06.708Z,99855.46
2017-11-23T22:12:34.093Z,99853.25
2017-11-23T22:15:01.484Z,99852.76
2017-11-23T22:17:28.899Z,99841.37
2017-11-23T22:19:56.294Z,99836.03
2017-11-23T22:22:23.684Z,99836.73
2017-11-23T22:24:51.103Z,99835.65
2017-11-23T22:27:18.501Z,99819.22
2017-11-23T22:29:45.900Z,99826.94
2017-11-23T22:32:13.287Z,99836.50
2017-11-23T22:34:40.687Z,99837.49
2017-11-23T22:37:08.087Z,99842.62
2017-11-23T22:39:35.481Z,99845.09
2017-11-23T22:42:02.874Z,99836.73
2017-11-23T22:44:30.287Z,99834.06
2017-11-23T22:46:57.696Z,99831.78
2017-11-23T22:49:25.084Z,99828.90
2017-11-23T22:51:52.485Z,99837.28
2017-11-23T22:54:19.887Z,99831.69
2017-11-23T22:56:47.279Z,99830.45
2017-11-23T22:59:14.675Z,99830.41
2017-11-23T23:01:42.078Z,99828.87
2017-11-23T23:04:09.463Z,99831.25
2017-11-23T23:06:36.856Z,99820.94
2017-11-23T23:09:04.260Z,99832.33
2017-11-23T23:11:31.653Z,99831.69
2017-11-23T23:13:59.105Z,99834.75
2017-11-23T23:16:26.534Z,99828.61
2017-11-23T23:18:54.014Z,99817.92
2017-11-23T23:21:21.397Z,99823.48
2017-11-23T23:23:48.812Z,99815.14
2017-11-23T23:26:16.211Z,99797.76
2017-11-23T23:28:43.613Z,99791.77
2017-11-23T23:31:11.007Z,99794.61
2017-11-23T23:33:38.428Z,99783.69
2017-11-23T23:36:05.819Z,99795.74
2017-11-23T23:38:33.223Z,99791.74
2017-11-23T23:41:00.616Z,99793.41
2017-11-23T23:43:28.033Z,99779.98
2017-11-23T23:45:55.452Z,99785.85
2017-11-23T23:48:22.847Z,99796.19
2017-11-23T23:50:50.259Z,99792.52
2017-11-23T23:53:17.654Z,99794.11
2017-11-23T23:55:45.059Z,99791.73
2017-11-23T23:58:12.455Z,99793.39
